sensor_id;sensor_type;location;lat;lon;timestamp;pressure;altitude;pressure_sealevel;temperature;humidity
37238;BME280;23129;49.662;8.448;2023-02-12T00:01:34;102851.41;;;5.98;100.00
37238;BME280;23129;49.662;8.448;2023-02-12T00:04:04;102854.88;;;5.98;100.00
37238;BME280;23129;49.662;8.448;2023-02-12T00:06:33;102853.19;;;5.99;100.00
37238;BME280;23129;49.662;8.448;2023-02-12T00:09:01;102860.16;;;6.00;100.00
37238;BME280;23129;49.662;8.448;2023-02-12T00:11:30;102851.47;;;5.99;100.00
37238;BME280;23129;49.662;8.448;2023-02-12T00:14:00;102855.81;;;6.00;100.00
37238;BME280;23129;49.662;8.448;2023-02-12T00:16:29;102849.75;;;6.00;100.00
37238;BME280;23129;49.662;8.448;2023-02-12T00:18:58;102847.97;;;5.99;100.00
37238;BME280;23129;49.662;8.448;2023-02-12T00:21:28;102854.06;;;5.99;100.00
37238;BME280;23129;49.662;8.448;2023-02-12T00:23:56;102864.50;;;5.99;100.00
37238;BME280;23129;49.662;8.448;2023-02-12T00:26:25;102863.63;;;5.99;100.00
37238;BME280;23129;49.662;8.448;2023-02-12T00:28:54;102853.13;;;5.97;100.00
37238;BME280;23129;49.662;8.448;2023-02-12T00:31:24;102847.88;;;5.96;100.00
37238;BME280;23129;49.662;8.448;2023-02-12T00:33:56;102856.59;;;5.96;100.00
37238;BME280;23129;49.662;8.448;2023-02-12T00:36:28;102859.19;;;5.96;100.00
37238;BME280;23129;49.662;8.448;2023-02-12T00:38:58;102854.84;;;5.97;100.00
37238;BME280;23129;49.662;8.448;2023-02-12T00:41:28;102853.97;;;5.96;100.00
37238;BME280;23129;49.662;8.448;2023-02-12T00:43:57;102855.72;;;5.96;100.00
37238;BME280;23129;49.662;8.448;2023-02-12T00:46:25;102858.31;;;5.96;100.00
37238;BME280;23129;49.662;8.448;2023-02-12T00:48:54;102857.41;;;5.95;100.00
37238;BME280;23129;49.662;8.448;2023-02-12T00:51:22;102866.94;;;5.94;100.00
37238;BME280;23129;49.662;8.448;2023-02-12T00:53:52;102868.72;;;5.96;100.00
37238;BME280;23129;49.662;8.448;2023-02-12T00:56:21;102865.28;;;5.97;100.00
37238;BME280;23129;49.662;8.448;2023-02-12T00:58:49;102860.94;;;5.97;100.00
37238;BME280;23129;49.662;8.448;2023-02-12T01:01:18;102868.75;;;5.97;100.00
37238;BME280;23129;49.662;8.448;2023-02-12T01:03:46;102867.03;;;5.98;100.00
37238;BME280;23129;49.662;8.448;2023-02-12T01:06:15;102872.25;;;5.98;100.00
37238;BME280;23129;49.662;8.448;2023-02-12T01:08:49;102864.50;;;5.99;100.00
37238;BME280;23129;49.662;8.448;2023-02-12T01:11:20;102861.91;;;6.01;100.00
37238;BME280;23129;49.662;8.448;2023-02-12T01:13:48;102861.09;;;6.02;100.00
37238;BME280;23129;49.662;8.448;2023-02-12T01:16:20;102858.50;;;6.02;100.00
37238;BME280;23129;49.662;8.448;2023-02-12T01:18:50;102868.91;;;6.02;100.00
37238;BME280;23129;49.662;8.448;2023-02-12T01:21:25;102870.66;;;6.03;100.00
37238;BME280;23129;49.662;8.448;2023-02-12T01:23:55;102867.22;;;6.04;100.00
37238;BME280;23129;49.662;8.448;2023-02-12T01:26:25;102869.00;;;6.05;100.00
37238;BME280;23129;49.662;8.448;2023-02-12T01:28:57;102869.88;;;6.05;100.00
37238;BME280;23129;49.662;8.448;2023-02-12T01:31:30;102870.81;;;6.07;100.00
37238;BME280;23129;49.662;8.448;2023-02-12T01:33:59;102864.75;;;6.08;100.00
37238;BME280;23129;49.662;8.448;2023-02-12T01:36:29;102865.63;;;6.09;100.00
37238;BME280;23129;49.662;8.448;2023-02-12T01:38:58;102858.78;;;6.11;100.00
37238;BME280;23129;49.662;8.448;2023-02-12T01:41:32;102857.06;;;6.13;100.00
37238;BME280;23129;49.662;8.448;2023-02-12T01:44:08;102865.81;;;6.15;100.00
37238;BME280;23129;49.662;8.448;2023-02-12T01:46:38;102865.81;;;6.15;100.00
37238;BME280;23129;49.662;8.448;2023-02-12T01:49:11;102857.16;;;6.16;100.00
37238;BME280;23129;49.662;8.448;2023-02-12T01:51:43;102853.72;;;6.17;100.00
37238;BME280;23129;49.662;8.448;2023-02-12T01:54:13;102841.59;;;6.19;100.00
37238;BME280;23129;49.662;8.448;2023-02-12T01:56:44;102848.59;;;6.20;100.00
37238;BME280;23129;49.662;8.448;2023-02-12T01:59:13;102854.72;;;6.22;100.00
37238;BME280;23129;49.662;8.448;2023-02-12T02:01:42;102854.78;;;6.24;100.00
37238;BME280;23129;49.662;8.448;2023-02-12T02:04:14;102852.25;;;6.25;100.00
37238;BME280;23129;49.662;8.448;2023-02-12T02:06:49;102848.78;;;6.26;100.00
37238;BME280;23129;49.662;8.448;2023-02-12T02:09:19;102849.66;;;6.27;100.00
37238;BME280;23129;49.662;8.448;2023-02-12T02:11:49;102846.19;;;6.26;100.00
37238;BME280;23129;49.662;8.448;2023-02-12T02:14:36;102839.22;;;6.27;100.00
37238;BME280;23129;49.662;8.448;2023-02-12T02:17:45;102843.56;;;6.26;100.00
37238;BME280;23129;49.662;8.448;2023-02-12T02:21:10;102834.03;;;6.27;100.00
37238;BME280;23129;49.662;8.448;2023-02-12T02:24:12;102846.22;;;6.28;100.00
37238;BME280;23129;49.662;8.448;2023-02-12T02:27:21;102842.72;;;6.27;100.00
37238;BME280;23129;49.662;8.448;2023-02-12T02:30:33;102840.97;;;6.26;100.00
37238;BME280;23129;49.662;8.448;2023-02-12T02:33:21;102835.75;;;6.26;100.00
37238;BME280;23129;49.662;8.448;2023-02-12T02:35:58;102839.22;;;6.27;100.00
37238;BME280;23129;49.662;8.448;2023-02-12T02:38:36;102837.47;;;6.26;100.00
37238;BME280;23129;49.662;8.448;2023-02-12T02:41:13;102841.84;;;6.27;100.00
37238;BME280;23129;49.662;8.448;2023-02-12T02:43:46;102846.22;;;6.28;100.00
37238;BME280;23129;49.662;8.448;2023-02-12T02:46:23;102843.56;;;6.26;100.00
37238;BME280;23129;49.662;8.448;2023-02-12T02:48:57;102846.22;;;6.28;100.00
37238;BME280;23129;49.662;8.448;2023-02-12T02:51:30;102843.56;;;6.26;100.00
37238;BME280;23129;49.662;8.448;2023-02-12T02:54:06;102841.81;;;6.25;100.00
37238;BME280;23129;49.662;8.448;2023-02-12T02:56:38;102845.25;;;6.24;100.00
37238;BME280;23129;49.662;8.448;2023-02-12T02:59:12;102840.91;;;6.25;100.00
37238;BME280;23129;49.662;8.448;2023-02-12T03:01:45;102840.03;;;6.24;100.00
37238;BME280;23129;49.662;8.448;2023-02-12T03:04:20;102843.47;;;6.23;100.00
37238;BME280;23129;49.662;8.448;2023-02-12T03:06:58;102839.09;;;6.22;100.00
37238;BME280;23129;49.662;8.448;2023-02-12T03:09:33;102844.31;;;6.22;100.00
37238;BME280;23129;49.662;8.448;2023-02-12T03:12:07;102840.81;;;6.22;100.00
37238;BME280;23129;49.662;8.448;2023-02-12T03:14:40;102838.19;;;6.20;100.00
37238;BME280;23129;49.662;8.448;2023-02-12T03:17:17;102832.09;;;6.20;100.00
37238;BME280;23129;49.662;8.448;2023-02-12T03:19:54;102833.78;;;6.19;100.00
37238;BME280;23129;49.662;8.448;2023-02-12T03:22:28;102838.09;;;6.17;100.00
37238;BME280;23129;49.662;8.448;2023-02-12T03:25:04;102838.09;;;6.17;100.00
37238;BME280;23129;49.662;8.448;2023-02-12T03:27:38;102836.38;;;6.17;100.00
37238;BME280;23129;49.662;8.448;2023-02-12T03:30:10;102839.84;;;6.18;100.00
37238;BME280;23129;49.662;8.448;2023-02-12T03:32:47;102838.19;;;6.20;100.00
37238;BME280;23129;49.662;8.448;2023-02-12T03:35:22;102845.16;;;6.21;100.00
37238;BME280;23129;49.662;8.448;2023-02-12T03:37:59;102844.28;;;6.21;100.00
37238;BME280;23129;49.662;8.448;2023-02-12T03:40:36;102843.41;;;6.20;100.00
37238;BME280;23129;49.662;8.448;2023-02-12T03:43:11;102835.56;;;6.20;100.00
37238;BME280;23129;49.662;8.448;2023-02-12T03:45:52;102839.94;;;6.21;100.00
37238;BME280;23129;49.662;8.448;2023-02-12T03:48:27;102850.38;;;6.21;100.00
37238;BME280;23129;49.662;8.448;2023-02-12T03:51:04;102840.81;;;6.22;100.00
37238;BME280;23129;49.662;8.448;2023-02-12T03:53:38;102846.00;;;6.20;100.00
37238;BME280;23129;49.662;8.448;2023-02-12T03:56:12;102838.13;;;6.18;100.00
37238;BME280;23129;49.662;8.448;2023-02-12T03:58:43;102844.97;;;6.15;100.00
37238;BME280;23129;49.662;8.448;2023-02-12T04:01:13;102846.56;;;6.10;100.00
37238;BME280;23129;49.662;8.448;2023-02-12T04:03:43;102846.47;;;6.07;100.00
37238;BME280;23129;49.662;8.448;2023-02-12T04:06:20;102850.78;;;6.05;100.00
37238;BME280;23129;49.662;8.448;2023-02-12T04:08:49;102852.50;;;6.04;100.00
37238;BME280;23129;49.662;8.448;2023-02-12T04:11:27;102848.06;;;6.02;100.00
37238;BME280;23129;49.662;8.448;2023-02-12T04:14:12;102856.72;;;6.01;100.00
37238;BME280;23129;49.662;8.448;2023-02-12T04:16:47;102854.09;;;6.01;100.00
37238;BME280;23129;49.662;8.448;2023-02-12T04:19:29;102856.69;;;5.99;100.00
37238;BME280;23129;49.662;8.448;2023-02-12T04:22:16;102865.38;;;6.00;100.00
37238;BME280;23129;49.662;8.448;2023-02-12T04:25:02;102860.16;;;6.00;100.00
37238;BME280;23129;49.662;8.448;2023-02-12T04:27:39;102864.53;;;6.01;100.00
37238;BME280;23129;49.662;8.448;2023-02-12T04:30:20;102867.13;;;6.01;100.00
37238;BME280;23129;49.662;8.448;2023-02-12T04:32:54;102864.59;;;6.02;100.00
37238;BME280;23129;49.662;8.448;2023-02-12T04:35:30;102873.28;;;6.03;100.00
37238;BME280;23129;49.662;8.448;2023-02-12T04:38:08;102864.59;;;6.02;100.00
37238;BME280;23129;49.662;8.448;2023-02-12T04:40:38;102874.22;;;6.05;100.00
37238;BME280;23129;49.662;8.448;2023-02-12T04:43:07;102861.19;;;6.05;100.00
37238;BME280;23129;49.662;8.448;2023-02-12T04:45:36;102865.56;;;6.06;100.00
37238;BME280;23129;49.662;8.448;2023-02-12T04:48:05;102871.63;;;6.06;100.00
37238;BME280;23129;49.662;8.448;2023-02-12T04:50:40;102876.84;;;6.06;100.00
37238;BME280;23129;49.662;8.448;2023-02-12T04:53:09;102875.13;;;6.07;100.00
37238;BME280;23129;49.662;8.448;2023-02-12T04:55:38;102879.53;;;6.08;100.00
37238;BME280;23129;49.662;8.448;2023-02-12T04:58:07;102874.31;;;6.08;100.00
37238;BME280;23129;49.662;8.448;2023-02-12T05:00:35;102876.06;;;6.09;100.00
37238;BME280;23129;49.662;8.448;2023-02-12T05:03:04;102866.53;;;6.09;100.00
37238;BME280;23129;49.662;8.448;2023-02-12T05:05:33;102869.19;;;6.11;100.00
37238;BME280;23129;49.662;8.448;2023-02-12T05:08:03;102869.19;;;6.11;100.00
37238;BME280;23129;49.662;8.448;2023-02-12T05:10:31;102862.19;;;6.10;100.00
37238;BME280;23129;49.662;8.448;2023-02-12T05:13:00;102863.03;;;6.09;100.00
37238;BME280;23129;49.662;8.448;2023-02-12T05:15:29;102863.81;;;6.06;100.00
37238;BME280;23129;49.662;8.448;2023-02-12T05:17:57;102865.56;;;6.06;100.00
37238;BME280;23129;49.662;8.448;2023-02-12T05:20:26;102868.91;;;6.02;100.00
37238;BME280;23129;49.662;8.448;2023-02-12T05:22:54;102870.63;;;6.01;100.00
37238;BME280;23129;49.662;8.448;2023-02-12T05:25:24;102864.50;;;5.99;100.00
37238;BME280;23129;49.662;8.448;2023-02-12T05:27:53;102867.03;;;5.98;100.00
37238;BME280;23129;49.662;8.448;2023-02-12T05:30:23;102869.63;;;5.96;100.00
37238;BME280;23129;49.662;8.448;2023-02-12T05:32:51;102866.94;;;5.94;100.00
37238;BME280;23129;49.662;8.448;2023-02-12T05:35:20;102862.47;;;5.92;100.00
37238;BME280;23129;49.662;8.448;2023-02-12T05:37:48;102865.06;;;5.90;100.00
37238;BME280;23129;49.662;8.448;2023-02-12T05:40:17;102863.25;;;5.88;100.00
37238;BME280;23129;49.662;8.448;2023-02-12T05:42:46;102868.34;;;5.85;100.00
37238;BME280;23129;49.662;8.448;2023-02-12T05:45:15;102861.31;;;5.82;100.00
37238;BME280;23129;49.662;8.448;2023-02-12T05:47:44;102864.69;;;5.78;100.00
37238;BME280;23129;49.662;8.448;2023-02-12T05:50:12;102860.19;;;5.74;100.00
37238;BME280;23129;49.662;8.448;2023-02-12T05:52:40;102863.63;;;5.71;100.00
37238;BME280;23129;49.662;8.448;2023-02-12T05:55:09;102867.91;;;5.71;100.00
37238;BME280;23129;49.662;8.448;2023-02-12T05:57:37;102864.44;;;5.70;100.00
37238;BME280;23129;49.662;8.448;2023-02-12T06:00:10;102864.34;;;5.67;100.00
37238;BME280;23129;49.662;8.448;2023-02-12T06:02:39;102859.09;;;5.66;100.00
37238;BME280;23129;49.662;8.448;2023-02-12T06:05:07;102865.97;;;5.64;100.00
37238;BME280;23129;49.662;8.448;2023-02-12T06:07:36;102858.06;;;5.61;100.00
37238;BME280;23129;49.662;8.448;2023-02-12T06:10:06;102859.69;;;5.57;100.00
37238;BME280;23129;49.662;8.448;2023-02-12T06:12:35;102861.31;;;5.54;100.00
37238;BME280;23129;49.662;8.448;2023-02-12T06:15:03;102868.94;;;5.47;100.00
37238;BME280;23129;49.662;8.448;2023-02-12T06:17:34;102861.84;;;5.43;100.00
37238;BME280;23129;49.662;8.448;2023-02-12T06:20:04;102873.03;;;5.41;100.00
37238;BME280;23129;49.662;8.448;2023-02-12T06:22:32;102872.16;;;5.40;100.00
37238;BME280;23129;49.662;8.448;2023-02-12T06:25:01;102873.91;;;5.41;100.00
37238;BME280;23129;49.662;8.448;2023-02-12T06:27:30;102870.50;;;5.42;100.00
37238;BME280;23129;49.662;8.448;2023-02-12T06:29:58;102870.59;;;5.45;100.00
37238;BME280;23129;49.662;8.448;2023-02-12T06:32:27;102874.03;;;5.44;100.00
37238;BME280;23129;49.662;8.448;2023-02-12T06:34:57;102874.91;;;5.45;100.00
37238;BME280;23129;49.662;8.448;2023-02-12T06:37:25;102876.66;;;5.44;100.00
37238;BME280;23129;49.662;8.448;2023-02-12T06:39:54;102874.03;;;5.44;100.00
37238;BME280;23129;49.662;8.448;2023-02-12T06:42:22;102887.16;;;5.47;100.00
37238;BME280;23129;49.662;8.448;2023-02-12T06:44:51;102884.59;;;5.49;100.00
37238;BME280;23129;49.662;8.448;2023-02-12T06:47:19;102895.06;;;5.51;100.00
37238;BME280;23129;49.662;8.448;2023-02-12T06:49:47;102893.44;;;5.54;100.00
37238;BME280;23129;49.662;8.448;2023-02-12T06:52:17;102903.88;;;5.56;100.00
37238;BME280;23129;49.662;8.448;2023-02-12T06:54:47;102904.75;;;5.56;100.00
37238;BME280;23129;49.662;8.448;2023-02-12T06:57:15;102899.56;;;5.56;100.00
37238;BME280;23129;49.662;8.448;2023-02-12T06:59:44;102903.88;;;5.56;100.00
37238;BME280;23129;49.662;8.448;2023-02-12T07:02:12;102905.56;;;5.54;100.00
37238;BME280;23129;49.662;8.448;2023-02-12T07:04:40;102912.44;;;5.52;100.00
37238;BME280;23129;49.662;8.448;2023-02-12T07:07:08;102917.66;;;5.52;100.00
37238;BME280;23129;49.662;8.448;2023-02-12T07:09:38;102922.00;;;5.53;100.00
37238;BME280;23129;49.662;8.448;2023-02-12T07:12:07;102922.94;;;5.55;100.00
37238;BME280;23129;49.662;8.448;2023-02-12T07:14:36;102927.38;;;5.57;100.00
37238;BME280;23129;49.662;8.448;2023-02-12T07:17:04;102925.59;;;5.56;100.00
37238;BME280;23129;49.662;8.448;2023-02-12T07:19:34;102928.09;;;5.53;100.00
37238;BME280;23129;49.662;8.448;2023-02-12T07:22:03;102938.47;;;5.52;100.00
37238;BME280;23129;49.662;8.448;2023-02-12T07:24:32;102929.81;;;5.53;100.00
37238;BME280;23129;49.662;8.448;2023-02-12T07:27:01;102932.47;;;5.54;100.00
37238;BME280;23129;49.662;8.448;2023-02-12T07:29:30;102932.59;;;5.57;100.00
37238;BME280;23129;49.662;8.448;2023-02-12T07:31:59;102933.50;;;5.59;100.00
37238;BME280;23129;49.662;8.448;2023-02-12T07:34:28;102935.31;;;5.62;100.00
37238;BME280;23129;49.662;8.448;2023-02-12T07:36:57;102931.13;;;5.65;100.00
37238;BME280;23129;49.662;8.448;2023-02-12T07:39:25;102937.31;;;5.69;100.00
37238;BME280;23129;49.662;8.448;2023-02-12T07:41:55;102932.19;;;5.72;100.00
37238;BME280;23129;49.662;8.448;2023-02-12T07:44:25;102935.81;;;5.77;100.00
37238;BME280;23129;49.662;8.448;2023-02-12T07:46:54;102927.28;;;5.81;100.00
37238;BME280;23129;49.662;8.448;2023-02-12T07:49:23;102932.59;;;5.84;100.00
37238;BME280;23129;49.662;8.448;2023-02-12T07:51:51;102932.69;;;5.87;100.00
37238;BME280;23129;49.662;8.448;2023-02-12T07:54:23;102935.53;;;5.93;100.00
37238;BME280;23129;49.662;8.448;2023-02-12T07:56:51;102938.22;;;5.97;100.00
37238;BME280;23129;49.662;8.448;2023-02-12T07:59:20;102933.94;;;5.99;100.00
37238;BME280;23129;49.662;8.448;2023-02-12T08:01:51;102940.06;;;6.01;100.00
37238;BME280;23129;49.662;8.448;2023-02-12T08:04:23;102942.78;;;6.04;100.00
37238;BME280;23129;49.662;8.448;2023-02-12T08:06:54;102949.03;;;6.09;100.00
37238;BME280;23129;49.662;8.448;2023-02-12T08:09:25;102950.88;;;6.13;100.00
37238;BME280;23129;49.662;8.448;2023-02-12T08:11:54;102949.31;;;6.18;100.00
37238;BME280;23129;49.662;8.448;2023-02-12T08:14:22;102951.16;;;6.22;100.00
37238;BME280;23129;49.662;8.448;2023-02-12T08:16:53;102949.59;;;6.27;100.00
37238;BME280;23129;49.662;8.448;2023-02-12T08:19:22;102952.34;;;6.32;100.00
37238;BME280;23129;49.662;8.448;2023-02-12T08:21:55;102949.84;;;6.36;100.00
37238;BME280;23129;49.662;8.448;2023-02-12T08:24:24;102962.16;;;6.40;100.00
37238;BME280;23129;49.662;8.448;2023-02-12T08:26:53;102953.59;;;6.45;100.00
37238;BME280;23129;49.662;8.448;2023-02-12T08:29:25;102956.34;;;6.49;100.00
37238;BME280;23129;49.662;8.448;2023-02-12T08:31:57;102951.22;;;6.52;100.00
37238;BME280;23129;49.662;8.448;2023-02-12T08:34:28;102960.03;;;6.57;100.00
37238;BME280;23129;49.662;8.448;2023-02-12T08:36:57;102959.25;;;6.60;100.00
37238;BME280;23129;49.662;8.448;2023-02-12T08:39:28;102960.19;;;6.62;100.00
37238;BME280;23129;49.662;8.448;2023-02-12T08:41:58;102958.47;;;6.64;100.00
37238;BME280;23129;49.662;8.448;2023-02-12T08:44:28;102959.41;;;6.66;100.00
37238;BME280;23129;49.662;8.448;2023-02-12T08:46:57;102969.06;;;6.69;100.00
37238;BME280;23129;49.662;8.448;2023-02-12T08:49:29;102961.31;;;6.70;100.00
37238;BME280;23129;49.662;8.448;2023-02-12T08:51:58;102967.44;;;6.72;100.00
37238;BME280;23129;49.662;8.448;2023-02-12T08:54:29;102953.59;;;6.75;100.00
37238;BME280;23129;49.662;8.448;2023-02-12T08:57:00;102964.09;;;6.78;100.00
37238;BME280;23129;49.662;8.448;2023-02-12T08:59:30;102963.31;;;6.80;100.00
37238;BME280;23129;49.662;8.448;2023-02-12T09:01:59;102963.41;;;6.83;100.00
37238;BME280;23129;49.662;8.448;2023-02-12T09:04:28;102965.25;;;6.88;100.00
37238;BME280;23129;49.662;8.448;2023-02-12T09:06:57;102973.16;;;6.91;100.00
37238;BME280;23129;49.662;8.448;2023-02-12T09:09:25;102963.66;;;6.93;100.00
37238;BME280;23129;49.662;8.448;2023-02-12T09:11:54;102971.63;;;6.97;100.00
37238;BME280;23129;49.662;8.448;2023-02-12T09:14:24;102965.59;;;7.00;100.00
37238;BME280;23129;49.662;8.448;2023-02-12T09:16:59;102976.09;;;7.03;100.00
37238;BME280;23129;49.662;8.448;2023-02-12T09:19:29;102965.78;;;7.06;100.00
37238;BME280;23129;49.662;8.448;2023-02-12T09:21:58;102972.84;;;7.10;100.00
37238;BME280;23129;49.662;8.448;2023-02-12T09:24:27;102968.63;;;7.15;100.00
37238;BME280;23129;49.662;8.448;2023-02-12T09:26:55;102973.09;;;7.19;100.00
37238;BME280;23129;49.662;8.448;2023-02-12T09:29:24;102974.03;;;7.21;100.00
37238;BME280;23129;49.662;8.448;2023-02-12T09:31:53;102971.50;;;7.24;100.00
37238;BME280;23129;49.662;8.448;2023-02-12T09:34:22;102971.56;;;7.27;100.00
37238;BME280;23129;49.662;8.448;2023-02-12T09:36:51;102972.47;;;7.29;100.00
37238;BME280;23129;49.662;8.448;2023-02-12T09:39:19;102970.88;;;7.35;100.00
37238;BME280;23129;49.662;8.448;2023-02-12T09:42:19;102965.78;;;7.39;100.00
37238;BME280;23129;49.662;8.448;2023-02-12T09:44:59;102975.50;;;7.45;100.00
37238;BME280;23129;49.662;8.448;2023-02-12T09:47:39;102974.75;;;7.49;100.00
37238;BME280;23129;49.662;8.448;2023-02-12T09:50:34;102969.59;;;7.52;100.00
37238;BME280;23129;49.662;8.448;2023-02-12T09:53:04;102972.38;;;7.58;100.00
37238;BME280;23129;49.662;8.448;2023-02-12T09:55:34;102977.75;;;7.64;100.00
37238;BME280;23129;49.662;8.448;2023-02-12T09:58:10;102977.00;;;7.70;100.00
37238;BME280;23129;49.662;8.448;2023-02-12T10:00:39;102989.38;;;7.77;100.00
37238;BME280;23129;49.662;8.448;2023-02-12T10:03:14;102980.78;;;7.81;100.00
37238;BME280;23129;49.662;8.448;2023-02-12T10:05:46;102981.72;;;7.85;100.00
37238;BME280;23129;49.662;8.448;2023-02-12T10:08:37;102976.66;;;7.91;100.00
37238;BME280;23129;49.662;8.448;2023-02-12T10:11:22;102972.44;;;7.96;100.00
37238;BME280;23129;49.662;8.448;2023-02-12T10:14:04;102976.06;;;8.03;100.00
37238;BME280;23129;49.662;8.448;2023-02-12T10:16:47;102973.53;;;8.07;100.00
37238;BME280;23129;49.662;8.448;2023-02-12T10:19:36;102971.94;;;8.12;100.00
37238;BME280;23129;49.662;8.448;2023-02-12T10:22:16;102966.84;;;8.18;100.00
37238;BME280;23129;49.662;8.448;2023-02-12T10:25:00;102967.84;;;8.23;100.00
37238;BME280;23129;49.662;8.448;2023-02-12T10:27:38;102971.47;;;8.30;100.00
37238;BME280;23129;49.662;8.448;2023-02-12T10:30:17;102964.63;;;8.37;100.00
37238;BME280;23129;49.662;8.448;2023-02-12T10:32:52;102965.66;;;8.42;100.00
37238;BME280;23129;49.662;8.448;2023-02-12T10:35:23;102965.00;;;8.52;100.00
37238;BME280;23129;49.662;8.448;2023-02-12T10:37:57;102963.44;;;8.60;100.00
37238;BME280;23129;49.662;8.448;2023-02-12T10:40:30;102959.25;;;8.68;100.00
37238;BME280;23129;49.662;8.448;2023-02-12T10:43:02;102957.69;;;8.77;100.00
37238;BME280;23129;49.662;8.448;2023-02-12T10:45:33;102957.00;;;8.87;100.00
37238;BME280;23129;49.662;8.448;2023-02-12T10:48:10;102947.56;;;8.95;100.00
37238;BME280;23129;49.662;8.448;2023-02-12T10:50:55;102944.19;;;9.02;100.00
37238;BME280;23129;49.662;8.448;2023-02-12T10:53:34;102948.72;;;9.09;100.00
37238;BME280;23129;49.662;8.448;2023-02-12T10:56:15;102937.50;;;9.17;100.00
37238;BME280;23129;49.662;8.448;2023-02-12T10:58:54;102928.94;;;9.27;100.00
37238;BME280;23129;49.662;8.448;2023-02-12T11:01:26;102940.44;;;9.35;100.00
37238;BME280;23129;49.662;8.448;2023-02-12T11:03:57;102924.88;;;9.43;100.00
37238;BME280;23129;49.662;8.448;2023-02-12T11:06:30;102925.84;;;9.49;100.00
37238;BME280;23129;49.662;8.448;2023-02-12T11:09:00;102924.25;;;9.59;100.00
37238;BME280;23129;49.662;8.448;2023-02-12T11:11:37;102927.88;;;9.69;100.00
37238;BME280;23129;49.662;8.448;2023-02-12T11:14:15;102921.03;;;9.77;100.00
37238;BME280;23129;49.662;8.448;2023-02-12T11:16:52;102914.13;;;9.82;100.00
37238;BME280;23129;49.662;8.448;2023-02-12T11:19:23;102917.75;;;9.90;100.00
37238;BME280;23129;49.662;8.448;2023-02-12T11:22:05;102915.22;;;9.96;100.00
37238;BME280;23129;49.662;8.448;2023-02-12T11:24:37;102910.94;;;10.04;100.00
37238;BME280;23129;49.662;8.448;2023-02-12T11:27:23;102904.06;;;10.13;100.00
37238;BME280;23129;49.662;8.448;2023-02-12T11:30:17;102904.25;;;10.25;100.00
37238;BME280;23129;49.662;8.448;2023-02-12T11:32:46;102904.38;;;10.34;100.00
37238;BME280;23129;49.662;8.448;2023-02-12T11:35:20;102896.63;;;10.42;100.00
37238;BME280;23129;49.662;8.448;2023-02-12T11:37:54;102894.97;;;10.50;100.00
37238;BME280;23129;49.662;8.448;2023-02-12T11:40:27;102890.69;;;10.57;100.00
37238;BME280;23129;49.662;8.448;2023-02-12T11:42:58;102885.50;;;10.63;100.00
37238;BME280;23129;49.662;8.448;2023-02-12T11:45:32;102887.31;;;10.70;100.00
37238;BME280;23129;49.662;8.448;2023-02-12T11:48:01;102882.13;;;10.76;100.00
37238;BME280;23129;49.662;8.448;2023-02-12T11:50:31;102880.44;;;10.81;100.00
37238;BME280;23129;49.662;8.448;2023-02-12T11:53:03;102880.50;;;10.87;100.00
37238;BME280;23129;49.662;8.448;2023-02-12T11:55:39;102877.94;;;10.93;100.00
37238;BME280;23129;49.662;8.448;2023-02-12T11:58:15;102884.97;;;10.96;100.00
37238;BME280;23129;49.662;8.448;2023-02-12T12:00:48;102877.09;;;10.96;100.00
37238;BME280;23129;49.662;8.448;2023-02-12T12:03:25;102878.88;;;10.99;100.00
37238;BME280;23129;49.662;8.448;2023-02-12T12:06:00;102868.41;;;11.02;100.00
37238;BME280;23129;49.662;8.448;2023-02-12T12:08:35;102870.16;;;11.03;100.00
37238;BME280;23129;49.662;8.448;2023-02-12T12:11:13;102868.44;;;11.05;100.00
37238;BME280;23129;49.662;8.448;2023-02-12T12:13:48;102872.84;;;11.10;100.00
37238;BME280;23129;49.662;8.448;2023-02-12T12:16:21;102865.88;;;11.15;100.00
37238;BME280;23129;49.662;8.448;2023-02-12T12:19:15;102861.56;;;11.20;100.00
37238;BME280;23129;49.662;8.448;2023-02-12T12:22:38;102866.84;;;11.27;100.00
37238;BME280;23129;49.662;8.448;2023-02-12T12:25:17;102868.69;;;11.35;100.00
37238;BME280;23129;49.662;8.448;2023-02-12T12:28:07;102856.47;;;11.40;100.00
37238;BME280;23129;49.662;8.448;2023-02-12T12:30:55;102856.50;;;11.47;100.00
37238;BME280;23129;49.662;8.448;2023-02-12T12:33:36;102852.13;;;11.47;100.00
37238;BME280;23129;49.662;8.448;2023-02-12T12:36:46;102856.53;;;11.50;100.00
37238;BME280;23129;49.662;8.448;2023-02-12T12:39:26;102849.56;;;11.52;100.00
37238;BME280;23129;49.662;8.448;2023-02-12T12:42:38;102847.84;;;11.60;100.00
37238;BME280;23129;49.662;8.448;2023-02-12T12:45:32;102839.97;;;11.66;100.00
37238;BME280;23129;49.662;8.448;2023-02-12T12:48:16;102851.44;;;11.74;100.00
37238;BME280;23129;49.662;8.448;2023-02-12T12:51:08;102837.44;;;11.81;100.00
37238;BME280;23129;49.662;8.448;2023-02-12T12:53:51;102826.97;;;11.87;100.00
37238;BME280;23129;49.662;8.448;2023-02-12T12:56:38;102820.88;;;11.93;100.00
37238;BME280;23129;49.662;8.448;2023-02-12T12:59:41;102816.53;;;11.98;100.00
37238;BME280;23129;49.662;8.448;2023-02-12T13:03:16;102813.03;;;12.01;100.00
37238;BME280;23129;49.662;8.448;2023-02-12T13:06:29;102814.84;;;12.14;100.00
37238;BME280;23129;49.662;8.448;2023-02-12T13:09:27;102811.38;;;12.24;100.00
37238;BME280;23129;49.662;8.448;2023-02-12T13:14:59;102819.28;;;12.35;100.00
37238;BME280;23129;49.662;8.448;2023-02-12T13:17:35;102807.91;;;12.44;100.00
37238;BME280;23129;49.662;8.448;2023-02-12T13:20:15;102804.44;;;12.60;100.00
37238;BME280;23129;49.662;8.448;2023-02-12T13:22:54;102804.47;;;12.88;100.00
37238;BME280;23129;49.662;8.448;2023-02-12T13:25:29;102797.47;;;13.08;100.00
37238;BME280;23129;49.662;8.448;2023-02-12T13:27:59;102793.09;;;13.26;100.00